sensor_id;sensor_type;location;lat;lon;timestamp;P1;durP1;ratioP1;P2;durP2;ratioP2
33858;SDS011;20156;47.486;12.074;2023-04-25T00:57:15;5.13;;;3.20;;
33858;SDS011;20156;47.486;12.074;2023-04-25T00:59:41;3.93;;;3.53;;
33858;SDS011;20156;47.486;12.074;2023-04-25T01:02:10;4.37;;;3.93;;
33858;SDS011;20156;47.486;12.074;2023-04-25T01:04:35;5.13;;;4.00;;
33858;SDS011;20156;47.486;12.074;2023-04-25T01:07:01;5.23;;;4.07;;
33858;SDS011;20156;47.486;12.074;2023-04-25T01:09:27;5.47;;;4.17;;
33858;SDS011;20156;47.486;12.074;2023-04-25T01:11:55;5.97;;;4.97;;
33858;SDS011;20156;47.486;12.074;2023-04-25T01:14:20;4.20;;;3.77;;
33858;SDS011;20156;47.486;12.074;2023-04-25T01:16:45;5.57;;;3.90;;
33858;SDS011;20156;47.486;12.074;2023-04-25T01:19:11;5.70;;;4.23;;
33858;SDS011;20156;47.486;12.074;2023-04-25T01:21:41;4.30;;;3.90;;
33858;SDS011;20156;47.486;12.074;2023-04-25T01:24:07;8.67;;;3.97;;
33858;SDS011;20156;47.486;12.074;2023-04-25T01:26:32;5.50;;;4.10;;
33858;SDS011;20156;47.486;12.074;2023-04-25T01:28:58;5.37;;;4.20;;
33858;SDS011;20156;47.486;12.074;2023-04-25T01:31:25;5.53;;;4.60;;
33858;SDS011;20156;47.486;12.074;2023-04-25T01:33:52;5.60;;;5.03;;
33858;SDS011;20156;47.486;12.074;2023-04-25T01:36:18;5.27;;;4.77;;
33858;SDS011;20156;47.486;12.074;2023-04-25T01:38:43;7.70;;;4.73;;
33858;SDS011;20156;47.486;12.074;2023-04-25T01:41:11;5.07;;;4.57;;
33858;SDS011;20156;47.486;12.074;2023-04-25T01:43:36;6.37;;;5.10;;
33858;SDS011;20156;47.486;12.074;2023-04-25T01:46:02;5.63;;;5.13;;
33858;SDS011;20156;47.486;12.074;2023-04-25T01:48:27;5.03;;;4.60;;
33858;SDS011;20156;47.486;12.074;2023-04-25T01:50:53;5.03;;;4.53;;
33858;SDS011;20156;47.486;12.074;2023-04-25T01:53:18;6.57;;;4.67;;
33858;SDS011;20156;47.486;12.074;2023-04-25T01:55:44;7.83;;;5.23;;
33858;SDS011;20156;47.486;12.074;2023-04-25T01:58:09;5.33;;;4.83;;
33858;SDS011;20156;47.486;12.074;2023-04-25T02:00:37;5.73;;;5.23;;
33858;SDS011;20156;47.486;12.074;2023-04-25T02:03:04;5.53;;;5.03;;
33858;SDS011;20156;47.486;12.074;2023-04-25T02:05:39;5.30;;;4.80;;
33858;SDS011;20156;47.486;12.074;2023-04-25T02:08:05;5.97;;;5.20;;
33858;SDS011;20156;47.486;12.074;2023-04-25T02:10:32;6.57;;;5.50;;
33858;SDS011;20156;47.486;12.074;2023-04-25T02:12:58;5.47;;;4.97;;
33858;SDS011;20156;47.486;12.074;2023-04-25T02:15:23;6.47;;;4.93;;
33858;SDS011;20156;47.486;12.074;2023-04-25T02:17:49;5.20;;;4.77;;
33858;SDS011;20156;47.486;12.074;2023-04-25T02:20:14;5.63;;;4.50;;
33858;SDS011;20156;47.486;12.074;2023-04-25T02:22:41;6.07;;;4.93;;
33858;SDS011;20156;47.486;12.074;2023-04-25T02:25:07;5.27;;;4.77;;
33858;SDS011;20156;47.486;12.074;2023-04-25T02:27:34;6.03;;;5.43;;
33858;SDS011;20156;47.486;12.074;2023-04-25T02:29:59;5.70;;;5.18;;
33858;SDS011;20156;47.486;12.074;2023-04-25T02:32:25;5.93;;;5.37;;
33858;SDS011;20156;47.486;12.074;2023-04-25T02:34:51;5.60;;;4.93;;
33858;SDS011;20156;47.486;12.074;2023-04-25T02:37:17;4.53;;;4.10;;
33858;SDS011;20156;47.486;12.074;2023-04-25T02:39:42;5.30;;;4.23;;
33858;SDS011;20156;47.486;12.074;2023-04-25T02:42:08;5.43;;;4.70;;
33858;SDS011;20156;47.486;12.074;2023-04-25T02:44:33;5.20;;;4.70;;
33858;SDS011;20156;47.486;12.074;2023-04-25T02:46:58;6.20;;;4.30;;
33858;SDS011;20156;47.486;12.074;2023-04-25T02:49:24;5.50;;;4.90;;
33858;SDS011;20156;47.486;12.074;2023-04-25T02:51:49;4.60;;;4.20;;
33858;SDS011;20156;47.486;12.074;2023-04-25T02:54:15;5.70;;;4.23;;
33858;SDS011;20156;47.486;12.074;2023-04-25T02:56:40;5.00;;;4.50;;
33858;SDS011;20156;47.486;12.074;2023-04-25T02:59:06;5.70;;;5.10;;
33858;SDS011;20156;47.486;12.074;2023-04-25T03:01:31;6.10;;;4.87;;
33858;SDS011;20156;47.486;12.074;2023-04-25T03:03:57;6.80;;;5.60;;
33858;SDS011;20156;47.486;12.074;2023-04-25T03:06:22;6.83;;;6.13;;
33858;SDS011;20156;47.486;12.074;2023-04-25T03:08:47;5.80;;;5.30;;
33858;SDS011;20156;47.486;12.074;2023-04-25T03:11:13;9.80;;;6.17;;
33858;SDS011;20156;47.486;12.074;2023-04-25T03:13:38;7.23;;;5.47;;
33858;SDS011;20156;47.486;12.074;2023-04-25T03:16:04;6.87;;;5.17;;
33858;SDS011;20156;47.486;12.074;2023-04-25T03:18:29;6.00;;;5.40;;
33858;SDS011;20156;47.486;12.074;2023-04-25T03:20:55;6.30;;;5.20;;
33858;SDS011;20156;47.486;12.074;2023-04-25T03:23:20;6.90;;;5.70;;
33858;SDS011;20156;47.486;12.074;2023-04-25T03:25:46;6.90;;;5.90;;
33858;SDS011;20156;47.486;12.074;2023-04-25T03:28:11;5.80;;;5.30;;
33858;SDS011;20156;47.486;12.074;2023-04-25T03:30:37;6.73;;;5.63;;
33858;SDS011;20156;47.486;12.074;2023-04-25T03:33:02;6.50;;;5.80;;
33858;SDS011;20156;47.486;12.074;2023-04-25T03:35:28;5.83;;;5.20;;
33858;SDS011;20156;47.486;12.074;2023-04-25T03:37:53;5.20;;;4.80;;
33858;SDS011;20156;47.486;12.074;2023-04-25T03:40:19;7.07;;;4.73;;
33858;SDS011;20156;47.486;12.074;2023-04-25T03:42:44;5.50;;;4.40;;
33858;SDS011;20156;47.486;12.074;2023-04-25T03:45:10;6.47;;;5.03;;
33858;SDS011;20156;47.486;12.074;2023-04-25T03:47:36;6.00;;;4.83;;
33858;SDS011;20156;47.486;12.074;2023-04-25T03:50:01;5.43;;;4.60;;
33858;SDS011;20156;47.486;12.074;2023-04-25T03:52:27;5.57;;;4.37;;
33858;SDS011;20156;47.486;12.074;2023-04-25T03:54:53;7.17;;;4.97;;
33858;SDS011;20156;47.486;12.074;2023-04-25T03:57:18;4.90;;;4.50;;
33858;SDS011;20156;47.486;12.074;2023-04-25T03:59:44;6.67;;;5.10;;
33858;SDS011;20156;47.486;12.074;2023-04-25T04:02:09;7.43;;;5.97;;
33858;SDS011;20156;47.486;12.074;2023-04-25T04:04:35;7.60;;;6.60;;
33858;SDS011;20156;47.486;12.074;2023-04-25T04:07:00;7.10;;;5.80;;
33858;SDS011;20156;47.486;12.074;2023-04-25T04:09:26;6.93;;;5.57;;
33858;SDS011;20156;47.486;12.074;2023-04-25T04:11:52;7.57;;;6.32;;
33858;SDS011;20156;47.486;12.074;2023-04-25T04:14:18;6.63;;;6.10;;
33858;SDS011;20156;47.486;12.074;2023-04-25T04:16:43;9.13;;;5.87;;
33858;SDS011;20156;47.486;12.074;2023-04-25T04:19:08;5.93;;;5.03;;
33858;SDS011;20156;47.486;12.074;2023-04-25T04:21:34;6.30;;;5.70;;
33858;SDS011;20156;47.486;12.074;2023-04-25T04:23:59;6.43;;;5.83;;
33858;SDS011;20156;47.486;12.074;2023-04-25T04:26:25;5.83;;;5.33;;
33858;SDS011;20156;47.486;12.074;2023-04-25T04:28:51;5.97;;;5.17;;
33858;SDS011;20156;47.486;12.074;2023-04-25T04:31:19;6.18;;;5.57;;
33858;SDS011;20156;47.486;12.074;2023-04-25T04:33:45;5.77;;;5.17;;
33858;SDS011;20156;47.486;12.074;2023-04-25T04:36:11;5.70;;;5.10;;
33858;SDS011;20156;47.486;12.074;2023-04-25T04:38:37;6.72;;;5.78;;
33858;SDS011;20156;47.486;12.074;2023-04-25T04:41:02;6.60;;;5.63;;
33858;SDS011;20156;47.486;12.074;2023-04-25T04:43:28;5.90;;;5.33;;
33858;SDS011;20156;47.486;12.074;2023-04-25T04:45:54;6.27;;;5.30;;
33858;SDS011;20156;47.486;12.074;2023-04-25T04:48:23;6.20;;;5.60;;
33858;SDS011;20156;47.486;12.074;2023-04-25T04:50:49;6.23;;;5.60;;
33858;SDS011;20156;47.486;12.074;2023-04-25T04:53:14;6.00;;;5.50;;
33858;SDS011;20156;47.486;12.074;2023-04-25T04:55:40;8.20;;;6.13;;
33858;SDS011;20156;47.486;12.074;2023-04-25T04:58:06;7.83;;;5.53;;
33858;SDS011;20156;47.486;12.074;2023-04-25T05:00:32;6.63;;;6.03;;
33858;SDS011;20156;47.486;12.074;2023-04-25T05:02:58;6.30;;;5.75;;
33858;SDS011;20156;47.486;12.074;2023-04-25T05:05:23;6.70;;;6.00;;
33858;SDS011;20156;47.486;12.074;2023-04-25T05:07:48;7.07;;;5.30;;
33858;SDS011;20156;47.486;12.074;2023-04-25T05:10:14;8.33;;;6.67;;
33858;SDS011;20156;47.486;12.074;2023-04-25T05:12:40;6.80;;;6.20;;
33858;SDS011;20156;47.486;12.074;2023-04-25T05:15:05;7.50;;;6.53;;
33858;SDS011;20156;47.486;12.074;2023-04-25T05:17:31;7.50;;;6.65;;
33858;SDS011;20156;47.486;12.074;2023-04-25T05:19:57;7.20;;;6.50;;
33858;SDS011;20156;47.486;12.074;2023-04-25T05:22:23;12.85;;;8.85;;
33858;SDS011;20156;47.486;12.074;2023-04-25T05:24:48;8.05;;;7.18;;
33858;SDS011;20156;47.486;12.074;2023-04-25T05:27:16;7.88;;;7.18;;
33858;SDS011;20156;47.486;12.074;2023-04-25T05:29:41;7.60;;;6.90;;
33858;SDS011;20156;47.486;12.074;2023-04-25T05:32:07;9.40;;;6.10;;
33858;SDS011;20156;47.486;12.074;2023-04-25T05:34:33;7.38;;;6.38;;
33858;SDS011;20156;47.486;12.074;2023-04-25T05:36:58;6.22;;;5.65;;
33858;SDS011;20156;47.486;12.074;2023-04-25T05:39:24;8.35;;;5.80;;
33858;SDS011;20156;47.486;12.074;2023-04-25T05:41:49;9.88;;;5.80;;
33858;SDS011;20156;47.486;12.074;2023-04-25T05:44:15;8.52;;;6.10;;
33858;SDS011;20156;47.486;12.074;2023-04-25T05:46:40;7.35;;;6.28;;
33858;SDS011;20156;47.486;12.074;2023-04-25T05:49:06;7.13;;;6.43;;
33858;SDS011;20156;47.486;12.074;2023-04-25T05:51:31;11.48;;;6.88;;
33858;SDS011;20156;47.486;12.074;2023-04-25T05:53:57;7.40;;;6.70;;
33858;SDS011;20156;47.486;12.074;2023-04-25T05:56:22;8.23;;;6.78;;
33858;SDS011;20156;47.486;12.074;2023-04-25T05:58:48;7.82;;;6.22;;
33858;SDS011;20156;47.486;12.074;2023-04-25T06:01:13;8.38;;;7.20;;
33858;SDS011;20156;47.486;12.074;2023-04-25T06:03:39;10.32;;;6.88;;
33858;SDS011;20156;47.486;12.074;2023-04-25T06:06:07;8.43;;;6.88;;
33858;SDS011;20156;47.486;12.074;2023-04-25T06:08:33;11.25;;;8.05;;
33858;SDS011;20156;47.486;12.074;2023-04-25T06:10:58;13.73;;;7.50;;
33858;SDS011;20156;47.486;12.074;2023-04-25T06:13:24;10.73;;;7.50;;
33858;SDS011;20156;47.486;12.074;2023-04-25T06:15:49;9.30;;;7.70;;
33858;SDS011;20156;47.486;12.074;2023-04-25T06:18:14;9.52;;;7.70;;
33858;SDS011;20156;47.486;12.074;2023-04-25T06:20:40;10.27;;;7.70;;
33858;SDS011;20156;47.486;12.074;2023-04-25T06:23:05;8.43;;;7.32;;
33858;SDS011;20156;47.486;12.074;2023-04-25T06:25:31;9.77;;;6.32;;
33858;SDS011;20156;47.486;12.074;2023-04-25T06:27:56;9.52;;;6.03;;
33858;SDS011;20156;47.486;12.074;2023-04-25T06:30:22;7.03;;;6.32;;
33858;SDS011;20156;47.486;12.074;2023-04-25T06:32:50;7.82;;;7.07;;
33858;SDS011;20156;47.486;12.074;2023-04-25T06:35:16;7.55;;;6.75;;
33858;SDS011;20156;47.486;12.074;2023-04-25T06:37:41;9.52;;;6.63;;
33858;SDS011;20156;47.486;12.074;2023-04-25T06:40:08;8.32;;;6.28;;
33858;SDS011;20156;47.486;12.074;2023-04-25T06:42:34;7.22;;;6.55;;
33858;SDS011;20156;47.486;12.074;2023-04-25T06:44:59;7.80;;;6.57;;
33858;SDS011;20156;47.486;12.074;2023-04-25T06:47:25;9.55;;;7.38;;
33858;SDS011;20156;47.486;12.074;2023-04-25T06:49:50;7.72;;;6.35;;
33858;SDS011;20156;47.486;12.074;2023-04-25T06:52:15;7.25;;;4.25;;
33858;SDS011;20156;47.486;12.074;2023-04-25T06:54:42;6.15;;;4.72;;
33858;SDS011;20156;47.486;12.074;2023-04-25T06:57:08;8.13;;;6.00;;
33858;SDS011;20156;47.486;12.074;2023-04-25T06:59:34;6.40;;;5.80;;
33858;SDS011;20156;47.486;12.074;2023-04-25T07:01:59;7.00;;;5.88;;
33858;SDS011;20156;47.486;12.074;2023-04-25T07:04:24;6.68;;;6.07;;
33858;SDS011;20156;47.486;12.074;2023-04-25T07:06:50;5.88;;;5.38;;
33858;SDS011;20156;47.486;12.074;2023-04-25T07:09:16;6.03;;;5.50;;
33858;SDS011;20156;47.486;12.074;2023-04-25T07:11:41;6.85;;;4.72;;
33858;SDS011;20156;47.486;12.074;2023-04-25T07:14:07;5.25;;;4.72;;
33858;SDS011;20156;47.486;12.074;2023-04-25T07:16:32;5.72;;;5.10;;
33858;SDS011;20156;47.486;12.074;2023-04-25T07:18:58;7.53;;;5.30;;
33858;SDS011;20156;47.486;12.074;2023-04-25T07:21:24;5.32;;;4.80;;
33858;SDS011;20156;47.486;12.074;2023-04-25T07:23:50;7.55;;;5.50;;
33858;SDS011;20156;47.486;12.074;2023-04-25T07:26:16;8.98;;;7.03;;
33858;SDS011;20156;47.486;12.074;2023-04-25T07:28:41;7.07;;;6.07;;
33858;SDS011;20156;47.486;12.074;2023-04-25T07:31:07;6.82;;;6.13;;
33858;SDS011;20156;47.486;12.074;2023-04-25T07:33:33;9.35;;;5.80;;
33858;SDS011;20156;47.486;12.074;2023-04-25T07:35:58;8.88;;;6.10;;
33858;SDS011;20156;47.486;12.074;2023-04-25T07:38:24;7.63;;;5.80;;
33858;SDS011;20156;47.486;12.074;2023-04-25T07:40:49;6.97;;;6.22;;
33858;SDS011;20156;47.486;12.074;2023-04-25T07:43:15;7.07;;;6.38;;
33858;SDS011;20156;47.486;12.074;2023-04-25T07:45:42;7.72;;;5.88;;
33858;SDS011;20156;47.486;12.074;2023-04-25T07:48:07;6.85;;;6.13;;
33858;SDS011;20156;47.486;12.074;2023-04-25T07:50:33;7.80;;;6.53;;
33858;SDS011;20156;47.486;12.074;2023-04-25T07:52:58;6.65;;;5.85;;
33858;SDS011;20156;47.486;12.074;2023-04-25T07:55:24;7.63;;;5.90;;
33858;SDS011;20156;47.486;12.074;2023-04-25T07:57:49;10.20;;;6.25;;
33858;SDS011;20156;47.486;12.074;2023-04-25T08:00:15;8.07;;;6.15;;
33858;SDS011;20156;47.486;12.074;2023-04-25T08:02:40;6.50;;;5.90;;
33858;SDS011;20156;47.486;12.074;2023-04-25T08:05:06;8.60;;;5.68;;
33858;SDS011;20156;47.486;12.074;2023-04-25T08:07:33;8.32;;;5.88;;
33858;SDS011;20156;47.486;12.074;2023-04-25T08:09:59;4.32;;;3.90;;
33858;SDS011;20156;47.486;12.074;2023-04-25T08:12:25;5.13;;;3.50;;
33858;SDS011;20156;47.486;12.074;2023-04-25T08:14:50;3.85;;;3.47;;
33858;SDS011;20156;47.486;12.074;2023-04-25T08:17:16;5.50;;;3.80;;
33858;SDS011;20156;47.486;12.074;2023-04-25T08:19:41;4.50;;;3.85;;
33858;SDS011;20156;47.486;12.074;2023-04-25T08:22:07;6.03;;;4.57;;
33858;SDS011;20156;47.486;12.074;2023-04-25T08:24:32;5.90;;;4.57;;
33858;SDS011;20156;47.486;12.074;2023-04-25T08:26:58;5.47;;;4.93;;
33858;SDS011;20156;47.486;12.074;2023-04-25T08:29:24;8.38;;;5.93;;
33858;SDS011;20156;47.486;12.074;2023-04-25T08:31:50;8.45;;;6.18;;
33858;SDS011;20156;47.486;12.074;2023-04-25T08:34:17;7.15;;;5.70;;
33858;SDS011;20156;47.486;12.074;2023-04-25T08:36:43;6.57;;;5.13;;
33858;SDS011;20156;47.486;12.074;2023-04-25T08:39:08;7.97;;;5.22;;
33858;SDS011;20156;47.486;12.074;2023-04-25T08:41:36;5.55;;;4.55;;
33858;SDS011;20156;47.486;12.074;2023-04-25T08:44:02;7.97;;;4.78;;
33858;SDS011;20156;47.486;12.074;2023-04-25T08:46:29;5.13;;;4.15;;
33858;SDS011;20156;47.486;12.074;2023-04-25T08:48:57;6.63;;;4.63;;
33858;SDS011;20156;47.486;12.074;2023-04-25T08:51:27;4.72;;;4.22;;
33858;SDS011;20156;47.486;12.074;2023-04-25T08:53:56;5.82;;;4.65;;
33858;SDS011;20156;47.486;12.074;2023-04-25T08:56:38;5.93;;;4.75;;
33858;SDS011;20156;47.486;12.074;2023-04-25T08:59:05;5.25;;;4.75;;
33858;SDS011;20156;47.486;12.074;2023-04-25T09:01:33;6.82;;;4.40;;
33858;SDS011;20156;47.486;12.074;2023-04-25T09:04:00;6.55;;;3.95;;
33858;SDS011;20156;47.486;12.074;2023-04-25T09:06:25;4.72;;;4.00;;
33858;SDS011;20156;47.486;12.074;2023-04-25T09:08:52;4.90;;;4.18;;
33858;SDS011;20156;47.486;12.074;2023-04-25T09:11:18;4.35;;;4.00;;
33858;SDS011;20156;47.486;12.074;2023-04-25T09:13:44;4.68;;;3.67;;
33858;SDS011;20156;47.486;12.074;2023-04-25T09:16:10;3.45;;;2.60;;
33858;SDS011;20156;47.486;12.074;2023-04-25T09:18:36;5.00;;;1.92;;
33858;SDS011;20156;47.486;12.074;2023-04-25T09:21:05;3.75;;;2.53;;
33858;SDS011;20156;47.486;12.074;2023-04-25T09:23:38;3.38;;;2.70;;
33858;SDS011;20156;47.486;12.074;2023-04-25T09:26:09;5.60;;;2.42;;
33858;SDS011;20156;47.486;12.074;2023-04-25T09:28:35;3.33;;;2.40;;
33858;SDS011;20156;47.486;12.074;2023-04-25T09:31:01;3.50;;;2.35;;
33858;SDS011;20156;47.486;12.074;2023-04-25T09:33:28;2.72;;;1.92;;
33858;SDS011;20156;47.486;12.074;2023-04-25T09:36:01;3.60;;;2.10;;
33858;SDS011;20156;47.486;12.074;2023-04-25T09:38:43;2.70;;;2.08;;
33858;SDS011;20156;47.486;12.074;2023-04-25T09:41:10;2.97;;;1.98;;
33858;SDS011;20156;47.486;12.074;2023-04-25T09:43:36;2.22;;;1.70;;
33858;SDS011;20156;47.486;12.074;2023-04-25T09:46:02;3.42;;;2.20;;
33858;SDS011;20156;47.486;12.074;2023-04-25T09:48:32;2.38;;;2.10;;
33858;SDS011;20156;47.486;12.074;2023-04-25T09:51:05;2.58;;;1.98;;
33858;SDS011;20156;47.486;12.074;2023-04-25T09:53:33;2.33;;;1.80;;
33858;SDS011;20156;47.486;12.074;2023-04-25T09:56:03;3.20;;;1.92;;
33858;SDS011;20156;47.486;12.074;2023-04-25T09:58:30;3.17;;;2.55;;
33858;SDS011;20156;47.486;12.074;2023-04-25T10:00:58;2.67;;;2.40;;
33858;SDS011;20156;47.486;12.074;2023-04-25T10:03:26;2.42;;;2.22;;
33858;SDS011;20156;47.486;12.074;2023-04-25T10:05:51;4.22;;;2.80;;
33858;SDS011;20156;47.486;12.074;2023-04-25T10:08:18;2.45;;;2.20;;
33858;SDS011;20156;47.486;12.074;2023-04-25T10:10:45;3.25;;;2.47;;
33858;SDS011;20156;47.486;12.074;2023-04-25T10:13:12;5.13;;;2.30;;
33858;SDS011;20156;47.486;12.074;2023-04-25T10:15:39;3.47;;;2.28;;
33858;SDS011;20156;47.486;12.074;2023-04-25T10:18:05;4.15;;;3.08;;
33858;SDS011;20156;47.486;12.074;2023-04-25T10:20:31;4.18;;;2.83;;
33858;SDS011;20156;47.486;12.074;2023-04-25T10:22:58;4.10;;;2.60;;
33858;SDS011;20156;47.486;12.074;2023-04-25T10:25:49;3.75;;;2.80;;
33858;SDS011;20156;47.486;12.074;2023-04-25T10:28:18;4.35;;;3.00;;
33858;SDS011;20156;47.486;12.074;2023-04-25T10:33:38;5.43;;;3.35;;
33858;SDS011;20156;47.486;12.074;2023-04-25T10:36:09;2.97;;;2.33;;
33858;SDS011;20156;47.486;12.074;2023-04-25T10:38:35;3.65;;;2.88;;
33858;SDS011;20156;47.486;12.074;2023-04-25T10:41:05;3.58;;;2.72;;
33858;SDS011;20156;47.486;12.074;2023-04-25T10:43:43;3.13;;;2.13;;
33858;SDS011;20156;47.486;12.074;2023-04-25T10:48:49;2.88;;;1.85;;
33858;SDS011;20156;47.486;12.074;2023-04-25T10:53:43;2.80;;;2.10;;
33858;SDS011;20156;47.486;12.074;2023-04-25T10:56:11;2.17;;;1.98;;
33858;SDS011;20156;47.486;12.074;2023-04-25T10:58:44;2.53;;;1.92;;
33858;SDS011;20156;47.486;12.074;2023-04-25T11:01:10;3.55;;;2.45;;
33858;SDS011;20156;47.486;12.074;2023-04-25T11:03:41;6.13;;;3.58;;
33858;SDS011;20156;47.486;12.074;2023-04-25T11:06:15;8.05;;;3.22;;
33858;SDS011;20156;47.486;12.074;2023-04-25T11:08:48;2.78;;;2.05;;
33858;SDS011;20156;47.486;12.074;2023-04-25T11:11:15;3.33;;;2.30;;
33858;SDS011;20156;47.486;12.074;2023-04-25T11:13:47;2.30;;;2.10;;
33858;SDS011;20156;47.486;12.074;2023-04-25T11:16:14;8.13;;;3.00;;
33858;SDS011;20156;47.486;12.074;2023-04-25T11:18:43;7.07;;;2.13;;
33858;SDS011;20156;47.486;12.074;2023-04-25T11:21:09;7.07;;;4.75;;
33858;SDS011;20156;47.486;12.074;2023-04-25T11:23:35;4.70;;;2.50;;
33858;SDS011;20156;47.486;12.074;2023-04-25T11:26:01;6.70;;;3.15;;
33858;SDS011;20156;47.486;12.074;2023-04-25T11:28:27;6.00;;;4.55;;
33858;SDS011;20156;47.486;12.074;2023-04-25T11:30:53;2.65;;;1.88;;
33858;SDS011;20156;47.486;12.074;2023-04-25T11:33:22;2.88;;;2.00;;
33858;SDS011;20156;47.486;12.074;2023-04-25T11:35:49;2.28;;;1.73;;
33858;SDS011;20156;47.486;12.074;2023-04-25T11:38:14;4.13;;;1.60;;
33858;SDS011;20156;47.486;12.074;2023-04-25T11:40:40;3.85;;;2.65;;
33858;SDS011;20156;47.486;12.074;2023-04-25T11:43:05;2.08;;;1.23;;
33858;SDS011;20156;47.486;12.074;2023-04-25T11:45:32;3.63;;;1.40;;
33858;SDS011;20156;47.486;12.074;2023-04-25T11:47:57;1.85;;;1.40;;
33858;SDS011;20156;47.486;12.074;2023-04-25T11:50:23;3.35;;;1.30;;
33858;SDS011;20156;47.486;12.074;2023-04-25T11:52:48;1.50;;;1.40;;
33858;SDS011;20156;47.486;12.074;2023-04-25T11:55:14;2.47;;;1.33;;
33858;SDS011;20156;47.486;12.074;2023-04-25T11:57:41;2.67;;;1.58;;
33858;SDS011;20156;47.486;12.074;2023-04-25T12:00:09;2.72;;;1.40;;
33858;SDS011;20156;47.486;12.074;2023-04-25T12:02:36;2.53;;;1.40;;
33858;SDS011;20156;47.486;12.074;2023-04-25T12:05:02;3.03;;;1.52;;
33858;SDS011;20156;47.486;12.074;2023-04-25T12:07:31;1.92;;;1.67;;
33858;SDS011;20156;47.486;12.074;2023-04-25T12:09:56;2.08;;;1.60;;
33858;SDS011;20156;47.486;12.074;2023-04-25T12:12:23;3.55;;;1.60;;
33858;SDS011;20156;47.486;12.074;2023-04-25T12:14:52;2.03;;;1.40;;
33858;SDS011;20156;47.486;12.074;2023-04-25T12:17:20;1.67;;;1.58;;
33858;SDS011;20156;47.486;12.074;2023-04-25T12:19:46;1.50;;;1.25;;
33858;SDS011;20156;47.486;12.074;2023-04-25T12:22:21;3.80;;;1.67;;
33858;SDS011;20156;47.486;12.074;2023-04-25T12:24:48;2.05;;;1.55;;
33858;SDS011;20156;47.486;12.074;2023-04-25T12:27:15;3.05;;;1.70;;
33858;SDS011;20156;47.486;12.074;2023-04-25T12:29:50;3.10;;;1.40;;
33858;SDS011;20156;47.486;12.074;2023-04-25T12:32:16;1.95;;;1.75;;
33858;SDS011;20156;47.486;12.074;2023-04-25T12:34:42;3.08;;;2.72;;
33858;SDS011;20156;47.486;12.074;2023-04-25T12:37:08;2.15;;;2.05;;
33858;SDS011;20156;47.486;12.074;2023-04-25T12:39:33;1.48;;;1.38;;
33858;SDS011;20156;47.486;12.074;2023-04-25T12:41:59;3.85;;;2.92;;
33858;SDS011;20156;47.486;12.074;2023-04-25T12:44:25;1.90;;;1.63;;
33858;SDS011;20156;47.486;12.074;2023-04-25T12:46:50;3.13;;;1.55;;
33858;SDS011;20156;47.486;12.074;2023-04-25T12:49:16;4.93;;;3.22;;
33858;SDS011;20156;47.486;12.074;2023-04-25T12:51:41;2.53;;;2.33;;
33858;SDS011;20156;47.486;12.074;2023-04-25T12:54:07;3.63;;;1.30;;
33858;SDS011;20156;47.486;12.074;2023-04-25T12:56:33;3.10;;;1.58;;
33858;SDS011;20156;47.486;12.074;2023-04-25T12:58:59;1.98;;;1.50;;
33858;SDS011;20156;47.486;12.074;2023-04-25T13:01:24;4.30;;;1.80;;
33858;SDS011;20156;47.486;12.074;2023-04-25T13:03:51;1.33;;;1.17;;
33858;SDS011;20156;47.486;12.074;2023-04-25T13:06:17;3.90;;;1.30;;
33858;SDS011;20156;47.486;12.074;2023-04-25T13:08:43;1.17;;;1.08;;
33858;SDS011;20156;47.486;12.074;2023-04-25T13:11:09;1.65;;;1.42;;
33858;SDS011;20156;47.486;12.074;2023-04-25T13:13:34;1.63;;;1.30;;
33858;SDS011;20156;47.486;12.074;2023-04-25T13:16:00;1.52;;;1.42;;
33858;SDS011;20156;47.486;12.074;2023-04-25T13:18:27;1.50;;;1.17;;
33858;SDS011;20156;47.486;12.074;2023-04-25T13:20:53;1.70;;;1.38;;
33858;SDS011;20156;47.486;12.074;2023-04-25T13:23:19;5.88;;;3.58;;
33858;SDS011;20156;47.486;12.074;2023-04-25T13:25:45;6.93;;;5.07;;
33858;SDS011;20156;47.486;12.074;2023-04-25T13:28:11;2.97;;;2.03;;
33858;SDS011;20156;47.486;12.074;2023-04-25T13:30:36;2.28;;;1.13;;
33858;SDS011;20156;47.486;12.074;2023-04-25T13:33:02;1.00;;;1.00;;
33858;SDS011;20156;47.486;12.074;2023-04-25T13:35:31;2.33;;;1.20;;
33858;SDS011;20156;47.486;12.074;2023-04-25T13:37:58;1.35;;;1.25;;
33858;SDS011;20156;47.486;12.074;2023-04-25T13:40:23;1.10;;;1.10;;
33858;SDS011;20156;47.486;12.074;2023-04-25T13:42:49;1.10;;;1.00;;
33858;SDS011;20156;47.486;12.074;2023-04-25T13:45:14;0.70;;;0.70;;
33858;SDS011;20156;47.486;12.074;2023-04-25T13:47:39;0.85;;;0.85;;
33858;SDS011;20156;47.486;12.074;2023-04-25T13:50:05;1.83;;;0.90;;
33858;SDS011;20156;47.486;12.074;2023-04-25T13:52:32;1.10;;;1.00;;
33858;SDS011;20156;47.486;12.074;2023-04-25T13:54:58;2.05;;;0.80;;
33858;SDS011;20156;47.486;12.074;2023-04-25T13:57:23;3.83;;;0.95;;
33858;SDS011;20156;47.486;12.074;2023-04-25T13:59:49;2.08;;;0.93;;
33858;SDS011;20156;47.486;12.074;2023-04-25T14:02:15;1.15;;;1.02;;
33858;SDS011;20156;47.486;12.074;2023-04-25T14:04:40;1.85;;;0.88;;
33858;SDS011;20156;47.486;12.074;2023-04-25T14:07:06;1.73;;;1.10;;
33858;SDS011;20156;47.486;12.074;2023-04-25T14:09:31;0.85;;;0.80;;
33858;SDS011;20156;47.486;12.074;2023-04-25T14:11:57;1.10;;;0.70;;
33858;SDS011;20156;47.486;12.074;2023-04-25T14:14:22;1.88;;;0.70;;
33858;SDS011;20156;47.486;12.074;2023-04-25T14:16:48;1.10;;;1.10;;
33858;SDS011;20156;47.486;12.074;2023-04-25T14:19:15;1.55;;;1.10;;
33858;SDS011;20156;47.486;12.074;2023-04-25T14:21:41;0.88;;;0.73;;
33858;SDS011;20156;47.486;12.074;2023-04-25T14:24:07;1.25;;;0.80;;
33858;SDS011;20156;47.486;12.074;2023-04-25T14:26:34;0.70;;;0.70;;
33858;SDS011;20156;47.486;12.074;2023-04-25T14:29:05;1.08;;;0.80;;
33858;SDS011;20156;47.486;12.074;2023-04-25T14:31:32;0.88;;;0.80;;
33858;SDS011;20156;47.486;12.074;2023-04-25T14:33:58;1.23;;;0.80;;
33858;SDS011;20156;47.486;12.074;2023-04-25T14:36:24;1.88;;;0.90;;
33858;SDS011;20156;47.486;12.074;2023-04-25T14:38:51;0.90;;;0.65;;
33858;SDS011;20156;47.486;12.074;2023-04-25T14:41:16;1.05;;;0.70;;
33858;SDS011;20156;47.486;12.074;2023-04-25T14:43:42;0.60;;;0.60;;
33858;SDS011;20156;47.486;12.074;2023-04-25T14:46:08;0.68;;;0.68;;
33858;SDS011;20156;47.486;12.074;2023-04-25T14:48:34;0.60;;;0.60;;
33858;SDS011;20156;47.486;12.074;2023-04-25T14:51:00;1.38;;;0.70;;
33858;SDS011;20156;47.486;12.074;2023-04-25T14:53:26;0.93;;;0.52;;
33858;SDS011;20156;47.486;12.074;2023-04-25T14:55:52;0.60;;;0.60;;
33858;SDS011;20156;47.486;12.074;2023-04-25T14:58:17;1.02;;;0.98;;
33858;SDS011;20156;47.486;12.074;2023-04-25T15:00:43;0.57;;;0.57;;
33858;SDS011;20156;47.486;12.074;2023-04-25T15:03:09;2.05;;;0.65;;
33858;SDS011;20156;47.486;12.074;2023-04-25T15:05:37;1.85;;;0.57;;
33858;SDS011;20156;47.486;12.074;2023-04-25T15:08:02;1.45;;;0.40;;
33858;SDS011;20156;47.486;12.074;2023-04-25T15:10:28;0.80;;;0.80;;
33858;SDS011;20156;47.486;12.074;2023-04-25T15:12:53;0.77;;;0.70;;
33858;SDS011;20156;47.486;12.074;2023-04-25T15:15:19;0.50;;;0.50;;
33858;SDS011;20156;47.486;12.074;2023-04-25T15:17:45;1.33;;;0.60;;
33858;SDS011;20156;47.486;12.074;2023-04-25T15:20:11;0.40;;;0.40;;
33858;SDS011;20156;47.486;12.074;2023-04-25T15:22:41;0.85;;;0.85;;
33858;SDS011;20156;47.486;12.074;2023-04-25T15:25:08;1.30;;;1.20;;
33858;SDS011;20156;47.486;12.074;2023-04-25T15:27:34;1.60;;;1.50;;
33858;SDS011;20156;47.486;12.074;2023-04-25T15:30:04;1.42;;;1.33;;
33858;SDS011;20156;47.486;12.074;2023-04-25T15:32:30;1.50;;;1.30;;